sensor_id;sensor_type;location;lat;lon;timestamp;temperature;humidity
37446;DHT22;23307;51.136;14.942;2023-07-13T00:01:50;23.50;89.50
37446;DHT22;23307;51.136;14.942;2023-07-13T00:04:18;23.50;89.60
37446;DHT22;23307;51.136;14.942;2023-07-13T00:06:45;23.60;89.40
37446;DHT22;23307;51.136;14.942;2023-07-13T00:09:15;23.60;89.30
37446;DHT22;23307;51.136;14.942;2023-07-13T00:11:42;23.60;89.10
37446;DHT22;23307;51.136;14.942;2023-07-13T00:14:08;23.60;88.70
37446;DHT22;23307;51.136;14.942;2023-07-13T00:16:36;23.50;88.40
37446;DHT22;23307;51.136;14.942;2023-07-13T00:19:02;23.40;88.50
37446;DHT22;23307;51.136;14.942;2023-07-13T00:21:29;23.30;88.90
37446;DHT22;23307;51.136;14.942;2023-07-13T00:23:55;23.40;89.50
37446;DHT22;23307;51.136;14.942;2023-07-13T00:26:20;23.40;89.30
37446;DHT22;23307;51.136;14.942;2023-07-13T00:28:46;23.30;88.90
37446;DHT22;23307;51.136;14.942;2023-07-13T00:31:12;23.30;89.20
37446;DHT22;23307;51.136;14.942;2023-07-13T00:33:40;23.20;89.80
37446;DHT22;23307;51.136;14.942;2023-07-13T00:36:06;23.10;90.30
37446;DHT22;23307;51.136;14.942;2023-07-13T00:38:32;23.10;90.70
37446;DHT22;23307;51.136;14.942;2023-07-13T00:40:58;23.10;91.00
37446;DHT22;23307;51.136;14.942;2023-07-13T00:43:26;23.00;91.40
37446;DHT22;23307;51.136;14.942;2023-07-13T00:48:21;22.90;91.90
37446;DHT22;23307;51.136;14.942;2023-07-13T00:50:50;22.90;92.00
37446;DHT22;23307;51.136;14.942;2023-07-13T00:53:17;22.90;92.10
37446;DHT22;23307;51.136;14.942;2023-07-13T00:55:44;22.90;91.90
37446;DHT22;23307;51.136;14.942;2023-07-13T00:58:11;22.80;91.90
37446;DHT22;23307;51.136;14.942;2023-07-13T01:00:38;22.80;92.20
37446;DHT22;23307;51.136;14.942;2023-07-13T01:03:04;22.70;92.30
37446;DHT22;23307;51.136;14.942;2023-07-13T01:05:32;22.70;92.30
37446;DHT22;23307;51.136;14.942;2023-07-13T01:07:59;22.60;92.10
37446;DHT22;23307;51.136;14.942;2023-07-13T01:10:25;22.70;92.10
37446;DHT22;23307;51.136;14.942;2023-07-13T01:12:51;22.70;92.00
37446;DHT22;23307;51.136;14.942;2023-07-13T01:18:07;22.60;92.60
37446;DHT22;23307;51.136;14.942;2023-07-13T01:20:36;22.60;93.00
37446;DHT22;23307;51.136;14.942;2023-07-13T01:23:10;22.60;93.20
37446;DHT22;23307;51.136;14.942;2023-07-13T01:25:38;22.60;92.80
37446;DHT22;23307;51.136;14.942;2023-07-13T01:28:05;22.60;92.50
37446;DHT22;23307;51.136;14.942;2023-07-13T01:30:30;22.50;92.20
37446;DHT22;23307;51.136;14.942;2023-07-13T01:32:57;22.40;92.40
37446;DHT22;23307;51.136;14.942;2023-07-13T01:35:24;22.30;92.50
37446;DHT22;23307;51.136;14.942;2023-07-13T01:37:53;22.20;92.70
37446;DHT22;23307;51.136;14.942;2023-07-13T01:40:19;22.10;93.30
37446;DHT22;23307;51.136;14.942;2023-07-13T01:42:45;22.00;94.30
37446;DHT22;23307;51.136;14.942;2023-07-13T01:45:11;21.80;95.10
37446;DHT22;23307;51.136;14.942;2023-07-13T01:47:37;21.60;96.00
37446;DHT22;23307;51.136;14.942;2023-07-13T01:50:02;21.40;96.70
37446;DHT22;23307;51.136;14.942;2023-07-13T01:52:28;21.30;97.80
37446;DHT22;23307;51.136;14.942;2023-07-13T01:54:54;21.10;99.00
37446;DHT22;23307;51.136;14.942;2023-07-13T01:57:20;21.10;99.90
37446;DHT22;23307;51.136;14.942;2023-07-13T01:59:45;21.00;99.90
37446;DHT22;23307;51.136;14.942;2023-07-13T02:02:12;20.90;99.90
37446;DHT22;23307;51.136;14.942;2023-07-13T02:04:38;20.80;99.90
37446;DHT22;23307;51.136;14.942;2023-07-13T02:07:04;20.70;99.90
37446;DHT22;23307;51.136;14.942;2023-07-13T02:09:30;20.60;99.90
37446;DHT22;23307;51.136;14.942;2023-07-13T02:11:56;20.60;99.90
37446;DHT22;23307;51.136;14.942;2023-07-13T02:14:22;20.60;99.90
37446;DHT22;23307;51.136;14.942;2023-07-13T02:16:47;20.60;99.90
37446;DHT22;23307;51.136;14.942;2023-07-13T02:19:13;20.60;99.90
37446;DHT22;23307;51.136;14.942;2023-07-13T02:21:39;20.70;99.90
37446;DHT22;23307;51.136;14.942;2023-07-13T02:24:05;20.70;99.90
37446;DHT22;23307;51.136;14.942;2023-07-13T02:26:30;20.70;99.90
37446;DHT22;23307;51.136;14.942;2023-07-13T02:28:56;20.70;99.90
37446;DHT22;23307;51.136;14.942;2023-07-13T02:31:21;20.60;99.90
37446;DHT22;23307;51.136;14.942;2023-07-13T02:33:47;20.60;99.90
37446;DHT22;23307;51.136;14.942;2023-07-13T02:36:22;20.50;99.90
37446;DHT22;23307;51.136;14.942;2023-07-13T02:39:11;20.40;99.90
37446;DHT22;23307;51.136;14.942;2023-07-13T02:41:37;20.40;99.90
37446;DHT22;23307;51.136;14.942;2023-07-13T02:44:03;20.50;99.90
37446;DHT22;23307;51.136;14.942;2023-07-13T02:46:31;20.60;99.90
37446;DHT22;23307;51.136;14.942;2023-07-13T02:48:57;20.60;99.90
37446;DHT22;23307;51.136;14.942;2023-07-13T02:51:22;20.70;99.90
37446;DHT22;23307;51.136;14.942;2023-07-13T02:53:48;20.70;99.90
37446;DHT22;23307;51.136;14.942;2023-07-13T02:56:13;20.80;99.90
37446;DHT22;23307;51.136;14.942;2023-07-13T02:58:39;20.80;99.90
37446;DHT22;23307;51.136;14.942;2023-07-13T03:01:09;20.80;99.90
37446;DHT22;23307;51.136;14.942;2023-07-13T03:03:35;20.80;99.90
37446;DHT22;23307;51.136;14.942;2023-07-13T03:06:02;20.80;99.90
37446;DHT22;23307;51.136;14.942;2023-07-13T03:08:29;20.70;99.90
37446;DHT22;23307;51.136;14.942;2023-07-13T03:11:09;20.60;99.90
37446;DHT22;23307;51.136;14.942;2023-07-13T03:13:37;20.60;99.90
37446;DHT22;23307;51.136;14.942;2023-07-13T03:16:02;20.50;99.90
37446;DHT22;23307;51.136;14.942;2023-07-13T03:18:28;20.50;99.90
37446;DHT22;23307;51.136;14.942;2023-07-13T03:20:54;20.50;99.90
37446;DHT22;23307;51.136;14.942;2023-07-13T03:23:21;20.40;99.90
37446;DHT22;23307;51.136;14.942;2023-07-13T03:25:48;20.40;99.90
37446;DHT22;23307;51.136;14.942;2023-07-13T03:28:14;20.30;99.90
37446;DHT22;23307;51.136;14.942;2023-07-13T03:30:40;20.30;99.90
37446;DHT22;23307;51.136;14.942;2023-07-13T03:33:06;20.20;99.90
37446;DHT22;23307;51.136;14.942;2023-07-13T03:35:33;20.20;99.90
37446;DHT22;23307;51.136;14.942;2023-07-13T03:38:00;20.10;99.90
37446;DHT22;23307;51.136;14.942;2023-07-13T03:40:28;20.10;99.90
37446;DHT22;23307;51.136;14.942;2023-07-13T03:42:53;20.00;99.90
37446;DHT22;23307;51.136;14.942;2023-07-13T03:45:19;20.00;99.90
37446;DHT22;23307;51.136;14.942;2023-07-13T03:47:45;19.90;99.90
37446;DHT22;23307;51.136;14.942;2023-07-13T03:50:10;20.00;99.90
37446;DHT22;23307;51.136;14.942;2023-07-13T03:52:36;19.90;99.90
37446;DHT22;23307;51.136;14.942;2023-07-13T03:55:02;19.90;99.90
37446;DHT22;23307;51.136;14.942;2023-07-13T03:57:28;20.00;99.90
37446;DHT22;23307;51.136;14.942;2023-07-13T03:59:53;19.90;99.90
37446;DHT22;23307;51.136;14.942;2023-07-13T04:02:19;19.90;99.90
37446;DHT22;23307;51.136;14.942;2023-07-13T04:05:22;19.90;99.90
37446;DHT22;23307;51.136;14.942;2023-07-13T04:07:48;20.00;99.90
37446;DHT22;23307;51.136;14.942;2023-07-13T04:10:34;20.00;99.90
37446;DHT22;23307;51.136;14.942;2023-07-13T04:13:00;20.00;99.90
37446;DHT22;23307;51.136;14.942;2023-07-13T04:15:29;19.90;99.90
37446;DHT22;23307;51.136;14.942;2023-07-13T04:17:55;19.90;99.90
37446;DHT22;23307;51.136;14.942;2023-07-13T04:20:21;19.80;99.90
37446;DHT22;23307;51.136;14.942;2023-07-13T04:22:48;19.80;99.90
37446;DHT22;23307;51.136;14.942;2023-07-13T04:25:13;19.80;99.90
37446;DHT22;23307;51.136;14.942;2023-07-13T04:27:39;19.80;99.90
37446;DHT22;23307;51.136;14.942;2023-07-13T04:30:05;19.80;99.90
37446;DHT22;23307;51.136;14.942;2023-07-13T04:32:31;19.80;99.90
37446;DHT22;23307;51.136;14.942;2023-07-13T04:34:58;19.80;99.90
37446;DHT22;23307;51.136;14.942;2023-07-13T04:37:25;19.80;99.90
37446;DHT22;23307;51.136;14.942;2023-07-13T04:39:50;19.80;99.90
37446;DHT22;23307;51.136;14.942;2023-07-13T04:42:16;19.80;99.90
37446;DHT22;23307;51.136;14.942;2023-07-13T04:44:41;19.90;99.90
37446;DHT22;23307;51.136;14.942;2023-07-13T04:47:07;20.00;99.90
37446;DHT22;23307;51.136;14.942;2023-07-13T04:49:32;20.00;99.90
37446;DHT22;23307;51.136;14.942;2023-07-13T04:51:58;20.10;99.90
37446;DHT22;23307;51.136;14.942;2023-07-13T04:54:24;20.10;99.90
37446;DHT22;23307;51.136;14.942;2023-07-13T04:56:49;20.10;99.90
37446;DHT22;23307;51.136;14.942;2023-07-13T04:59:15;20.10;99.90
37446;DHT22;23307;51.136;14.942;2023-07-13T05:01:42;20.10;99.90
37446;DHT22;23307;51.136;14.942;2023-07-13T05:04:08;20.20;99.90
37446;DHT22;23307;51.136;14.942;2023-07-13T05:06:34;20.20;99.90
37446;DHT22;23307;51.136;14.942;2023-07-13T05:09:00;20.20;99.90
37446;DHT22;23307;51.136;14.942;2023-07-13T05:11:26;20.30;99.90
37446;DHT22;23307;51.136;14.942;2023-07-13T05:13:52;20.20;99.90
37446;DHT22;23307;51.136;14.942;2023-07-13T05:16:19;20.20;99.90
37446;DHT22;23307;51.136;14.942;2023-07-13T05:18:45;20.20;99.90
37446;DHT22;23307;51.136;14.942;2023-07-13T05:21:11;20.20;99.90
37446;DHT22;23307;51.136;14.942;2023-07-13T05:23:37;20.00;99.90
37446;DHT22;23307;51.136;14.942;2023-07-13T05:26:04;20.00;99.90
37446;DHT22;23307;51.136;14.942;2023-07-13T05:28:31;20.00;99.90
37446;DHT22;23307;51.136;14.942;2023-07-13T05:30:58;19.90;99.90
37446;DHT22;23307;51.136;14.942;2023-07-13T05:33:24;19.90;99.90
37446;DHT22;23307;51.136;14.942;2023-07-13T05:35:50;20.00;99.90
37446;DHT22;23307;51.136;14.942;2023-07-13T05:38:16;20.10;99.90
37446;DHT22;23307;51.136;14.942;2023-07-13T05:40:43;20.10;99.90
37446;DHT22;23307;51.136;14.942;2023-07-13T05:43:09;20.20;99.90
37446;DHT22;23307;51.136;14.942;2023-07-13T05:45:35;20.20;99.90
37446;DHT22;23307;51.136;14.942;2023-07-13T05:48:01;20.30;99.90
37446;DHT22;23307;51.136;14.942;2023-07-13T05:50:27;20.30;99.90
37446;DHT22;23307;51.136;14.942;2023-07-13T05:52:53;20.40;99.90
37446;DHT22;23307;51.136;14.942;2023-07-13T05:55:19;20.40;99.90
37446;DHT22;23307;51.136;14.942;2023-07-13T05:57:45;20.40;99.90
37446;DHT22;23307;51.136;14.942;2023-07-13T06:00:11;20.40;99.90
37446;DHT22;23307;51.136;14.942;2023-07-13T06:02:37;20.40;99.90
37446;DHT22;23307;51.136;14.942;2023-07-13T06:05:03;20.40;99.90
37446;DHT22;23307;51.136;14.942;2023-07-13T06:07:29;20.50;99.90
37446;DHT22;23307;51.136;14.942;2023-07-13T06:09:55;20.50;99.90
37446;DHT22;23307;51.136;14.942;2023-07-13T06:12:20;20.50;99.90
37446;DHT22;23307;51.136;14.942;2023-07-13T06:14:46;20.60;99.90
37446;DHT22;23307;51.136;14.942;2023-07-13T06:17:12;20.60;99.90
37446;DHT22;23307;51.136;14.942;2023-07-13T06:19:39;20.60;99.90
37446;DHT22;23307;51.136;14.942;2023-07-13T06:22:04;20.70;99.90
37446;DHT22;23307;51.136;14.942;2023-07-13T06:24:30;20.70;99.90
37446;DHT22;23307;51.136;14.942;2023-07-13T06:26:55;20.70;99.90
37446;DHT22;23307;51.136;14.942;2023-07-13T06:29:22;20.60;99.90
37446;DHT22;23307;51.136;14.942;2023-07-13T06:31:48;20.70;99.90
37446;DHT22;23307;51.136;14.942;2023-07-13T06:34:14;20.80;99.90
37446;DHT22;23307;51.136;14.942;2023-07-13T06:36:39;21.00;99.90
37446;DHT22;23307;51.136;14.942;2023-07-13T06:39:06;21.10;99.90
37446;DHT22;23307;51.136;14.942;2023-07-13T06:41:33;21.30;99.90
37446;DHT22;23307;51.136;14.942;2023-07-13T06:43:59;21.30;99.90
37446;DHT22;23307;51.136;14.942;2023-07-13T06:46:25;21.30;99.90
37446;DHT22;23307;51.136;14.942;2023-07-13T06:48:51;21.40;99.90
37446;DHT22;23307;51.136;14.942;2023-07-13T06:51:17;21.50;99.90
37446;DHT22;23307;51.136;14.942;2023-07-13T06:53:43;21.60;99.90
37446;DHT22;23307;51.136;14.942;2023-07-13T06:56:09;21.70;99.90
37446;DHT22;23307;51.136;14.942;2023-07-13T06:58:36;21.70;99.90
37446;DHT22;23307;51.136;14.942;2023-07-13T07:01:03;21.80;99.90
37446;DHT22;23307;51.136;14.942;2023-07-13T07:03:29;21.80;99.90
37446;DHT22;23307;51.136;14.942;2023-07-13T07:06:07;21.80;99.90
37446;DHT22;23307;51.136;14.942;2023-07-13T07:08:37;21.90;99.90
37446;DHT22;23307;51.136;14.942;2023-07-13T07:11:03;21.90;99.90
37446;DHT22;23307;51.136;14.942;2023-07-13T07:13:29;21.90;99.90
37446;DHT22;23307;51.136;14.942;2023-07-13T07:15:55;22.00;99.90
37446;DHT22;23307;51.136;14.942;2023-07-13T07:18:21;22.00;99.90
37446;DHT22;23307;51.136;14.942;2023-07-13T07:20:46;22.10;99.90
37446;DHT22;23307;51.136;14.942;2023-07-13T07:23:12;22.30;99.90
37446;DHT22;23307;51.136;14.942;2023-07-13T07:25:38;22.30;99.90
37446;DHT22;23307;51.136;14.942;2023-07-13T07:28:08;22.30;99.90
37446;DHT22;23307;51.136;14.942;2023-07-13T07:30:33;22.40;99.90
37446;DHT22;23307;51.136;14.942;2023-07-13T07:32:59;22.50;99.90
37446;DHT22;23307;51.136;14.942;2023-07-13T07:35:25;22.60;99.90
37446;DHT22;23307;51.136;14.942;2023-07-13T07:37:50;22.70;99.90
37446;DHT22;23307;51.136;14.942;2023-07-13T07:40:16;22.80;99.90
37446;DHT22;23307;51.136;14.942;2023-07-13T07:42:42;23.00;99.90
37446;DHT22;23307;51.136;14.942;2023-07-13T07:45:07;23.10;99.90
37446;DHT22;23307;51.136;14.942;2023-07-13T07:47:33;23.30;99.90
37446;DHT22;23307;51.136;14.942;2023-07-13T07:49:59;23.50;99.90
37446;DHT22;23307;51.136;14.942;2023-07-13T07:52:25;23.70;99.90
37446;DHT22;23307;51.136;14.942;2023-07-13T07:54:51;23.90;99.90
37446;DHT22;23307;51.136;14.942;2023-07-13T07:57:17;24.00;99.90
37446;DHT22;23307;51.136;14.942;2023-07-13T07:59:42;24.00;99.90
37446;DHT22;23307;51.136;14.942;2023-07-13T08:02:09;24.10;99.90
37446;DHT22;23307;51.136;14.942;2023-07-13T08:04:38;24.20;99.90
37446;DHT22;23307;51.136;14.942;2023-07-13T08:07:06;24.30;99.90
37446;DHT22;23307;51.136;14.942;2023-07-13T08:09:32;24.40;99.90
37446;DHT22;23307;51.136;14.942;2023-07-13T08:12:33;24.60;99.90
37446;DHT22;23307;51.136;14.942;2023-07-13T08:15:00;24.60;99.90
37446;DHT22;23307;51.136;14.942;2023-07-13T08:17:26;24.80;99.90
37446;DHT22;23307;51.136;14.942;2023-07-13T08:19:52;24.90;99.90
37446;DHT22;23307;51.136;14.942;2023-07-13T08:22:18;24.60;99.90
37446;DHT22;23307;51.136;14.942;2023-07-13T08:24:44;24.20;99.90
37446;DHT22;23307;51.136;14.942;2023-07-13T08:27:10;24.30;99.90
37446;DHT22;23307;51.136;14.942;2023-07-13T08:29:38;24.40;99.90
37446;DHT22;23307;51.136;14.942;2023-07-13T08:32:06;24.30;99.90
37446;DHT22;23307;51.136;14.942;2023-07-13T08:34:34;24.40;99.90
37446;DHT22;23307;51.136;14.942;2023-07-13T08:37:02;24.50;99.90
37446;DHT22;23307;51.136;14.942;2023-07-13T08:39:31;24.70;99.90
37446;DHT22;23307;51.136;14.942;2023-07-13T08:42:02;24.70;99.90
37446;DHT22;23307;51.136;14.942;2023-07-13T08:47:17;24.80;99.90
37446;DHT22;23307;51.136;14.942;2023-07-13T08:49:44;24.90;99.90
37446;DHT22;23307;51.136;14.942;2023-07-13T08:54:53;25.00;99.90
37446;DHT22;23307;51.136;14.942;2023-07-13T08:57:27;25.20;99.90
37446;DHT22;23307;51.136;14.942;2023-07-13T08:59:56;25.10;99.90
37446;DHT22;23307;51.136;14.942;2023-07-13T09:02:35;25.00;99.90
37446;DHT22;23307;51.136;14.942;2023-07-13T09:05:14;25.10;99.90
37446;DHT22;23307;51.136;14.942;2023-07-13T09:11:07;25.60;99.90
37446;DHT22;23307;51.136;14.942;2023-07-13T09:14:00;25.70;99.90
37446;DHT22;23307;51.136;14.942;2023-07-13T09:16:27;26.00;99.90
37446;DHT22;23307;51.136;14.942;2023-07-13T09:19:02;26.00;99.20
37446;DHT22;23307;51.136;14.942;2023-07-13T09:21:37;25.90;98.00
37446;DHT22;23307;51.136;14.942;2023-07-13T09:27:23;25.70;98.70
37446;DHT22;23307;51.136;14.942;2023-07-13T09:32:36;25.70;98.20
37446;DHT22;23307;51.136;14.942;2023-07-13T09:35:11;25.80;97.00
37446;DHT22;23307;51.136;14.942;2023-07-13T09:37:38;25.90;97.50
37446;DHT22;23307;51.136;14.942;2023-07-13T09:40:05;26.10;97.40
37446;DHT22;23307;51.136;14.942;2023-07-13T09:42:36;26.40;95.50
37446;DHT22;23307;51.136;14.942;2023-07-13T09:45:02;26.50;95.10
37446;DHT22;23307;51.136;14.942;2023-07-13T09:47:30;26.80;94.90
37446;DHT22;23307;51.136;14.942;2023-07-13T09:50:02;26.90;94.60
37446;DHT22;23307;51.136;14.942;2023-07-13T09:53:02;27.10;94.20
37446;DHT22;23307;51.136;14.942;2023-07-13T09:55:34;27.20;94.40
37446;DHT22;23307;51.136;14.942;2023-07-13T09:58:22;27.30;93.90
37446;DHT22;23307;51.136;14.942;2023-07-13T10:01:03;27.30;92.90
37446;DHT22;23307;51.136;14.942;2023-07-13T10:03:35;27.20;92.80
37446;DHT22;23307;51.136;14.942;2023-07-13T10:06:16;27.20;93.50
37446;DHT22;23307;51.136;14.942;2023-07-13T10:08:45;27.30;92.00
37446;DHT22;23307;51.136;14.942;2023-07-13T10:13:56;27.40;92.20
37446;DHT22;23307;51.136;14.942;2023-07-13T10:16:25;27.50;91.90
37446;DHT22;23307;51.136;14.942;2023-07-13T10:18:58;27.30;92.20
37446;DHT22;23307;51.136;14.942;2023-07-13T10:21:32;27.40;92.90
37446;DHT22;23307;51.136;14.942;2023-07-13T10:24:10;27.40;92.30
37446;DHT22;23307;51.136;14.942;2023-07-13T10:26:45;27.30;91.50
37446;DHT22;23307;51.136;14.942;2023-07-13T10:29:13;27.40;91.50
37446;DHT22;23307;51.136;14.942;2023-07-13T10:31:41;27.50;89.80
37446;DHT22;23307;51.136;14.942;2023-07-13T10:34:12;27.60;88.30
37446;DHT22;23307;51.136;14.942;2023-07-13T10:36:43;27.90;87.30
37446;DHT22;23307;51.136;14.942;2023-07-13T10:41:42;28.30;85.40
37446;DHT22;23307;51.136;14.942;2023-07-13T10:44:21;28.30;82.00
37446;DHT22;23307;51.136;14.942;2023-07-13T10:46:55;28.30;82.10
37446;DHT22;23307;51.136;14.942;2023-07-13T10:49:23;28.30;79.70
37446;DHT22;23307;51.136;14.942;2023-07-13T10:51:50;28.50;79.00
37446;DHT22;23307;51.136;14.942;2023-07-13T10:56:45;29.10;75.70
37446;DHT22;23307;51.136;14.942;2023-07-13T10:59:15;29.40;73.10
37446;DHT22;23307;51.136;14.942;2023-07-13T11:01:55;29.40;70.80
37446;DHT22;23307;51.136;14.942;2023-07-13T11:04:23;29.20;72.80
37446;DHT22;23307;51.136;14.942;2023-07-13T11:06:56;29.10;71.40
37446;DHT22;23307;51.136;14.942;2023-07-13T11:09:39;28.90;72.00
37446;DHT22;23307;51.136;14.942;2023-07-13T11:22:51;28.20;76.90
37446;DHT22;23307;51.136;14.942;2023-07-13T11:35:50;29.70;74.30
37446;DHT22;23307;51.136;14.942;2023-07-13T11:38:21;29.90;71.80
37446;DHT22;23307;51.136;14.942;2023-07-13T11:40:50;29.90;70.70
37446;DHT22;23307;51.136;14.942;2023-07-13T11:43:17;29.60;70.00
37446;DHT22;23307;51.136;14.942;2023-07-13T11:45:45;29.40;68.90
37446;DHT22;23307;51.136;14.942;2023-07-13T11:50:54;29.20;71.90
37446;DHT22;23307;51.136;14.942;2023-07-13T11:53:21;29.50;71.70
37446;DHT22;23307;51.136;14.942;2023-07-13T11:55:47;29.50;70.50
37446;DHT22;23307;51.136;14.942;2023-07-13T11:58:18;29.60;73.00
37446;DHT22;23307;51.136;14.942;2023-07-13T12:00:46;30.20;70.50
37446;DHT22;23307;51.136;14.942;2023-07-13T12:03:18;30.40;67.60
37446;DHT22;23307;51.136;14.942;2023-07-13T12:05:56;30.60;68.10
37446;DHT22;23307;51.136;14.942;2023-07-13T12:08:22;30.90;66.70
37446;DHT22;23307;51.136;14.942;2023-07-13T12:10:55;31.10;67.00
37446;DHT22;23307;51.136;14.942;2023-07-13T12:13:22;30.90;66.00
37446;DHT22;23307;51.136;14.942;2023-07-13T12:15:48;31.10;66.50
37446;DHT22;23307;51.136;14.942;2023-07-13T12:18:18;31.20;63.80
37446;DHT22;23307;51.136;14.942;2023-07-13T12:20:45;31.00;65.90
37446;DHT22;23307;51.136;14.942;2023-07-13T12:23:28;31.30;65.50
37446;DHT22;23307;51.136;14.942;2023-07-13T12:25:56;31.80;68.40
37446;DHT22;23307;51.136;14.942;2023-07-13T12:28:38;32.00;62.60
37446;DHT22;23307;51.136;14.942;2023-07-13T12:31:07;32.20;64.90
37446;DHT22;23307;51.136;14.942;2023-07-13T12:33:34;32.20;60.90
37446;DHT22;23307;51.136;14.942;2023-07-13T12:36:05;32.00;60.00
37446;DHT22;23307;51.136;14.942;2023-07-13T12:38:32;32.00;59.00
37446;DHT22;23307;51.136;14.942;2023-07-13T12:40:59;32.20;59.20
37446;DHT22;23307;51.136;14.942;2023-07-13T12:43:28;32.30;59.20
37446;DHT22;23307;51.136;14.942;2023-07-13T12:46:04;31.80;58.00
37446;DHT22;23307;51.136;14.942;2023-07-13T12:48:38;31.40;57.50
37446;DHT22;23307;51.136;14.942;2023-07-13T12:51:10;30.70;59.70
37446;DHT22;23307;51.136;14.942;2023-07-13T12:53:50;30.60;58.60
37446;DHT22;23307;51.136;14.942;2023-07-13T12:56:23;30.80;58.90
37446;DHT22;23307;51.136;14.942;2023-07-13T12:58:54;30.90;58.00
37446;DHT22;23307;51.136;14.942;2023-07-13T13:01:21;30.50;58.40
37446;DHT22;23307;51.136;14.942;2023-07-13T13:03:51;30.40;59.40
37446;DHT22;23307;51.136;14.942;2023-07-13T13:08:49;30.10;58.80
37446;DHT22;23307;51.136;14.942;2023-07-13T13:11:16;30.00;60.50
37446;DHT22;23307;51.136;14.942;2023-07-13T13:13:46;29.70;59.70
37446;DHT22;23307;51.136;14.942;2023-07-13T13:16:20;29.20;60.50
37446;DHT22;23307;51.136;14.942;2023-07-13T13:18:46;28.80;62.00
37446;DHT22;23307;51.136;14.942;2023-07-13T13:21:12;28.50;62.40
37446;DHT22;23307;51.136;14.942;2023-07-13T13:23:38;28.50;63.30
37446;DHT22;23307;51.136;14.942;2023-07-13T13:26:08;28.90;63.70
37446;DHT22;23307;51.136;14.942;2023-07-13T13:28:34;29.40;61.60
37446;DHT22;23307;51.136;14.942;2023-07-13T13:31:00;29.60;61.70
37446;DHT22;23307;51.136;14.942;2023-07-13T13:33:25;30.00;63.40
37446;DHT22;23307;51.136;14.942;2023-07-13T13:35:51;30.20;62.20
37446;DHT22;23307;51.136;14.942;2023-07-13T13:38:20;29.90;62.90
37446;DHT22;23307;51.136;14.942;2023-07-13T13:40:49;29.40;64.80
37446;DHT22;23307;51.136;14.942;2023-07-13T13:43:21;29.00;64.30
37446;DHT22;23307;51.136;14.942;2023-07-13T13:45:51;28.70;65.70
37446;DHT22;23307;51.136;14.942;2023-07-13T13:48:19;28.50;65.60
37446;DHT22;23307;51.136;14.942;2023-07-13T13:50:47;28.10;65.90
37446;DHT22;23307;51.136;14.942;2023-07-13T13:53:14;28.00;67.40
37446;DHT22;23307;51.136;14.942;2023-07-13T13:55:40;28.00;66.80
37446;DHT22;23307;51.136;14.942;2023-07-13T13:58:08;27.90;66.50
37446;DHT22;23307;51.136;14.942;2023-07-13T14:00:33;28.00;67.40
37446;DHT22;23307;51.136;14.942;2023-07-13T14:02:59;28.70;68.00
37446;DHT22;23307;51.136;14.942;2023-07-13T14:05:26;29.30;67.80
37446;DHT22;23307;51.136;14.942;2023-07-13T14:07:52;30.10;65.80
37446;DHT22;23307;51.136;14.942;2023-07-13T14:10:21;30.70;61.20
37446;DHT22;23307;51.136;14.942;2023-07-13T14:12:48;30.40;61.50
37446;DHT22;23307;51.136;14.942;2023-07-13T14:15:22;30.40;62.30
37446;DHT22;23307;51.136;14.942;2023-07-13T14:17:48;30.40;62.10
37446;DHT22;23307;51.136;14.942;2023-07-13T14:20:19;31.00;61.90
37446;DHT22;23307;51.136;14.942;2023-07-13T14:22:46;31.50;61.40
37446;DHT22;23307;51.136;14.942;2023-07-13T14:25:13;31.40;59.30
37446;DHT22;23307;51.136;14.942;2023-07-13T14:27:40;30.90;58.90
37446;DHT22;23307;51.136;14.942;2023-07-13T14:30:20;31.00;57.30
37446;DHT22;23307;51.136;14.942;2023-07-13T14:32:46;30.60;58.10
37446;DHT22;23307;51.136;14.942;2023-07-13T14:35:14;30.50;58.50
37446;DHT22;23307;51.136;14.942;2023-07-13T14:37:41;30.40;58.90
37446;DHT22;23307;51.136;14.942;2023-07-13T14:40:16;30.40;58.80
37446;DHT22;23307;51.136;14.942;2023-07-13T14:42:42;30.10;59.10
37446;DHT22;23307;51.136;14.942;2023-07-13T14:45:18;30.40;60.00
37446;DHT22;23307;51.136;14.942;2023-07-13T14:47:45;30.40;58.70
37446;DHT22;23307;51.136;14.942;2023-07-13T14:50:23;30.30;59.30
37446;DHT22;23307;51.136;14.942;2023-07-13T14:52:50;30.50;59.60
37446;DHT22;23307;51.136;14.942;2023-07-13T14:55:18;30.60;58.50
37446;DHT22;23307;51.136;14.942;2023-07-13T14:57:45;30.60;59.10
37446;DHT22;23307;51.136;14.942;2023-07-13T15:00:16;30.80;59.50
37446;DHT22;23307;51.136;14.942;2023-07-13T15:02:46;31.10;57.00
37446;DHT22;23307;51.136;14.942;2023-07-13T15:05:29;31.20;57.80
37446;DHT22;23307;51.136;14.942;2023-07-13T15:07:58;31.20;57.00
37446;DHT22;23307;51.136;14.942;2023-07-13T15:10:27;31.00;57.00
37446;DHT22;23307;51.136;14.942;2023-07-13T15:12:59;31.10;56.50
37446;DHT22;23307;51.136;14.942;2023-07-13T15:15:30;31.40;56.50
37446;DHT22;23307;51.136;14.942;2023-07-13T15:17:58;31.00;55.50
37446;DHT22;23307;51.136;14.942;2023-07-13T15:20:32;30.70;56.00
37446;DHT22;23307;51.136;14.942;2023-07-13T15:23:04;30.80;56.90
37446;DHT22;23307;51.136;14.942;2023-07-13T15:25:32;31.10;56.60
37446;DHT22;23307;51.136;14.942;2023-07-13T15:27:59;31.50;56.50
37446;DHT22;23307;51.136;14.942;2023-07-13T15:30:34;31.10;55.50
37446;DHT22;23307;51.136;14.942;2023-07-13T15:35:37;30.30;56.20
37446;DHT22;23307;51.136;14.942;2023-07-13T15:38:14;30.20;56.40
37446;DHT22;23307;51.136;14.942;2023-07-13T15:40:41;30.40;57.50
37446;DHT22;23307;51.136;14.942;2023-07-13T15:43:11;30.60;56.40
37446;DHT22;23307;51.136;14.942;2023-07-13T15:45:39;30.70;57.10
37446;DHT22;23307;51.136;14.942;2023-07-13T15:48:17;30.80;56.20
37446;DHT22;23307;51.136;14.942;2023-07-13T15:50:53;30.90;57.50
37446;DHT22;23307;51.136;14.942;2023-07-13T15:53:25;30.90;56.10
37446;DHT22;23307;51.136;14.942;2023-07-13T15:55:54;31.00;57.30
37446;DHT22;23307;51.136;14.942;2023-07-13T15:58:21;31.20;56.00
37446;DHT22;23307;51.136;14.942;2023-07-13T16:00:47;31.00;56.30
37446;DHT22;23307;51.136;14.942;2023-07-13T16:03:17;30.80;55.90
37446;DHT22;23307;51.136;14.942;2023-07-13T16:05:42;30.70;56.30
37446;DHT22;23307;51.136;14.942;2023-07-13T16:08:29;30.60;55.90
37446;DHT22;23307;51.136;14.942;2023-07-13T16:10:56;30.50;56.50
37446;DHT22;23307;51.136;14.942;2023-07-13T16:13:23;30.60;56.70
37446;DHT22;23307;51.136;14.942;2023-07-13T16:15:50;30.90;56.10
37446;DHT22;23307;51.136;14.942;2023-07-13T16:18:16;31.00;55.70
37446;DHT22;23307;51.136;14.942;2023-07-13T16:20:43;30.80;55.50